Time;durP1;ratioP1;P1;durP2;ratioP2;P2;SDS_P1;SDS_P2;PMS_P1;PMS_P2;Temp;Humidity;BMP_temperature;BMP_pressure;BME280_temperature;BME280_humidity;BME280_pressure;Samples;Min_cycle;Max_cycle;Signal;HPM_P1;HPM_P2
2023/09/21 00:00:23;;;;;;;1.00;0.60;;;;;;;17.72;76.66;100169.88;4995878;28;20415;-67
2023/09/21 00:02:57;;;;;;;0.90;0.50;;;;;;;17.64;77.17;100168.47;4993544;28;20469;-66
2023/09/21 00:05:33;;;;;;;0.90;0.40;;;;;;;17.74;76.79;100163.06;4995759;28;20857;-66
2023/09/21 00:08:07;;;;;;;0.90;0.47;;;;;;;17.75;76.58;100163.88;4998062;28;20446;-66
2023/09/21 00:10:41;;;;;;;0.90;0.40;;;;;;;17.79;76.62;100168.53;4998381;28;20448;-68
2023/09/21 00:13:14;;;;;;;0.90;0.40;;;;;;;17.78;76.31;100168.81;4989034;28;20953;-66
2023/09/21 00:15:49;;;;;;;0.90;0.50;;;;;;;17.69;76.78;100163.03;4990111;28;20474;-67
2023/09/21 00:18:23;;;;;;;0.90;0.40;;;;;;;17.67;77.37;100156.19;4995235;28;20605;-67
2023/09/21 00:21:01;;;;;;;0.90;0.50;;;;;;;17.68;77.11;100158.63;5008995;28;20424;-65
2023/09/21 00:23:36;;;;;;;0.90;0.50;;;;;;;17.60;77.93;100156.41;4992274;28;20485;-67
2023/09/21 00:26:11;;;;;;;0.90;0.60;;;;;;;17.46;78.43;100146.19;4985666;28;20451;-66
2023/09/21 00:28:51;;;;;;;0.87;0.50;;;;;;;17.49;78.35;100143.72;5006016;28;20544;-66
2023/09/21 00:31:23;;;;;;;0.80;0.40;;;;;;;17.39;78.88;100149.16;4993503;28;20417;-67
2023/09/21 00:33:58;;;;;;;0.90;0.50;;;;;;;17.39;79.27;100144.50;4984323;28;20938;-66
2023/09/21 00:36:32;;;;;;;0.90;0.47;;;;;;;17.36;79.50;100147.78;4994875;28;20424;-67
2023/09/21 00:39:11;;;;;;;1.00;0.57;;;;;;;17.29;79.97;100141.72;4980117;28;20879;-67
2023/09/21 00:41:42;;;;;;;0.90;0.47;;;;;;;17.18;80.29;100137.28;5004741;28;20470;-67
2023/09/21 00:44:14;;;;;;;1.30;0.70;;;;;;;17.27;80.20;100143.06;4990089;28;20453;-66
2023/09/21 00:46:49;;;;;;;0.90;0.40;;;;;;;17.27;80.31;100134.88;5005611;28;20532;-66
2023/09/21 00:49:23;;;;;;;0.90;0.40;;;;;;;17.32;79.94;100130.25;4993944;28;20950;-65
2023/09/21 00:51:56;;;;;;;0.90;0.40;;;;;;;17.20;80.44;100134.28;5005510;28;20855;-66
2023/09/21 00:54:31;;;;;;;0.90;0.50;;;;;;;17.32;79.91;100130.25;4993480;28;20991;-66
2023/09/21 00:57:05;;;;;;;0.90;0.70;;;;;;;17.21;80.29;100136.75;5003457;28;20494;-66
2023/09/21 00:59:45;;;;;;;1.00;0.50;;;;;;;17.11;81.62;100124.91;4987392;28;20445;-66
2023/09/21 01:02:22;;;;;;;0.90;0.40;;;;;;;17.04;81.73;100124.34;4991371;28;20447;-70
2023/09/21 01:04:54;;;;;;;1.00;0.50;;;;;;;16.95;82.42;100127.53;4992258;28;20474;-65
2023/09/21 01:07:29;;;;;;;0.90;0.40;;;;;;;16.95;83.01;100121.25;4984749;28;20896;-66
2023/09/21 01:10:11;;;;;;;0.87;0.50;;;;;;;16.85;83.02;100116.53;4998733;28;20466;-68
2023/09/21 01:12:49;;;;;;;0.90;0.50;;;;;;;16.84;83.65;100123.09;4986862;28;20428;-67
2023/09/21 01:15:25;;;;;;;0.83;0.40;;;;;;;16.88;83.40;100117.94;4998452;28;20499;-66
2023/09/21 01:17:58;;;;;;;0.90;0.40;;;;;;;16.77;83.47;100119.75;4994342;28;20471;-66
2023/09/21 01:20:44;;;;;;;0.90;0.60;;;;;;;16.69;84.30;100117.53;5005666;28;20508;-66
2023/09/21 01:23:25;;;;;;;1.00;0.50;;;;;;;16.69;84.73;100116.69;4994350;28;20926;-66
2023/09/21 01:25:59;;;;;;;0.90;0.50;;;;;;;16.65;84.74;100116.41;4998479;28;20443;-66
2023/09/21 01:28:33;;;;;;;0.80;0.40;;;;;;;16.64;85.02;100119.38;5004655;28;20487;-66
2023/09/21 01:31:11;;;;;;;0.90;0.50;;;;;;;16.68;84.77;100110.41;4991053;28;20425;-67
2023/09/21 01:33:50;;;;;;;1.00;0.70;;;;;;;16.69;84.57;100105.78;4989432;28;20476;-66
2023/09/21 01:36:24;;;;;;;0.97;0.53;;;;;;;16.59;85.30;100111.97;4975484;28;20483;-66
2023/09/21 01:38:58;;;;;;;0.90;0.40;;;;;;;16.57;85.67;100108.63;4987319;28;20463;-67
2023/09/21 01:41:37;;;;;;;0.90;0.50;;;;;;;16.56;85.69;100106.97;4998316;28;20430;-66
2023/09/21 01:44:10;;;;;;;2.60;0.70;;;;;;;16.52;86.18;100106.69;4989849;28;20495;-66
2023/09/21 01:46:45;;;;;;;0.87;0.40;;;;;;;16.66;85.15;100093.44;5005226;28;20420;-66
2023/09/21 01:49:20;;;;;;;0.97;0.87;;;;;;;16.53;85.94;100091.13;4984752;28;21008;-65
2023/09/21 01:52:03;;;;;;;0.80;0.40;;;;;;;16.55;86.07;100094.44;4985338;28;20428;-67
2023/09/21 01:54:38;;;;;;;0.90;0.40;;;;;;;16.52;86.05;100094.94;4987432;28;21019;-66
2023/09/21 01:57:13;;;;;;;1.87;1.10;;;;;;;16.44;86.25;100088.06;4986315;28;20424;-66
2023/09/21 01:59:48;;;;;;;0.90;0.50;;;;;;;16.40;86.90;100097.03;4998300;28;20427;-65
2023/09/21 02:02:23;;;;;;;0.80;0.40;;;;;;;16.31;87.52;100087.66;4980871;28;20939;-65
2023/09/21 02:05:01;;;;;;;0.90;0.50;;;;;;;16.37;87.37;100090.16;4998142;28;20444;-65
2023/09/21 02:07:38;;;;;;;0.80;0.40;;;;;;;16.43;87.31;100093.75;4994305;28;20403;-66
2023/09/21 02:10:18;;;;;;;0.90;0.60;;;;;;;16.33;87.75;100086.31;5001468;28;20586;-66
2023/09/21 02:13:00;;;;;;;0.80;0.40;;;;;;;16.29;87.95;100084.34;5015275;28;20845;-65
2023/09/21 02:15:37;;;;;;;0.83;0.50;;;;;;;16.25;88.14;100078.59;4994247;28;20451;-67
2023/09/21 02:18:15;;;;;;;0.80;0.40;;;;;;;16.19;88.71;100076.91;4984260;28;21086;-66
2023/09/21 02:20:54;;;;;;;0.80;0.40;;;;;;;16.30;88.10;100066.91;4993376;28;20444;-67
2023/09/21 02:23:27;;;;;;;1.50;0.80;;;;;;;16.22;88.27;100067.34;4996727;28;20445;-67
2023/09/21 02:26:02;;;;;;;0.80;0.40;;;;;;;16.08;88.99;100061.50;4995286;28;20440;-65
2023/09/21 02:28:40;;;;;;;0.80;0.40;;;;;;;16.05;89.75;100068.31;4992853;28;20827;-65
2023/09/21 02:31:15;;;;;;;0.80;0.60;;;;;;;15.97;90.05;100066.06;4988537;28;20425;-67
2023/09/21 02:33:49;;;;;;;1.20;0.60;;;;;;;16.04;89.39;100063.94;4993949;28;20850;-65
2023/09/21 02:36:26;;;;;;;0.80;0.40;;;;;;;16.05;89.54;100071.03;4995781;28;20804;-67
2023/09/21 02:38:59;;;;;;;0.87;0.47;;;;;;;16.30;88.39;100053.25;4994922;28;20945;-68
2023/09/21 02:41:34;;;;;;;0.80;0.40;;;;;;;16.31;87.83;100054.91;4995520;28;20523;-67
2023/09/21 02:44:10;;;;;;;0.80;0.40;;;;;;;16.26;87.73;100060.31;4993988;28;20473;-66
2023/09/21 02:46:45;;;;;;;0.90;0.70;;;;;;;16.33;87.32;100053.53;4973360;28;20444;-66
2023/09/21 02:49:21;;;;;;;0.90;0.60;;;;;;;16.18;88.21;100052.56;4992823;28;20834;-67
2023/09/21 02:51:55;;;;;;;0.80;0.40;;;;;;;16.03;88.95;100056.00;5006722;28;20482;-66
2023/09/21 02:54:32;;;;;;;0.80;0.40;;;;;;;16.05;89.20;100057.41;4990652;28;20470;-66
2023/09/21 02:57:07;;;;;;;0.80;0.40;;;;;;;15.93;89.83;100056.72;4992655;28;20683;-67
2023/09/21 02:59:48;;;;;;;0.90;0.53;;;;;;;15.83;90.61;100045.69;4993488;28;20412;-65
2023/09/21 03:02:21;;;;;;;1.00;0.70;;;;;;;15.84;90.77;100049.25;4998835;28;20412;-68
2023/09/21 03:04:57;;;;;;;0.80;0.40;;;;;;;15.82;90.70;100049.53;4990204;28;20476;-66
2023/09/21 03:07:33;;;;;;;0.80;0.40;;;;;;;15.85;90.70;100040.00;4988310;28;20505;-66
2023/09/21 03:10:09;;;;;;;0.80;0.40;;;;;;;15.88;90.32;100039.47;4983094;28;20470;-66
2023/09/21 03:12:47;;;;;;;0.80;0.40;;;;;;;15.92;89.65;100033.25;4980613;28;20524;-67
2023/09/21 03:15:26;;;;;;;0.80;0.40;;;;;;;15.87;90.27;100035.94;4978176;28;20476;-67
2023/09/21 03:18:01;;;;;;;0.80;0.50;;;;;;;15.85;90.12;100035.34;4997820;28;20535;-67
2023/09/21 03:20:36;;;;;;;0.80;0.43;;;;;;;15.78;90.73;100033.94;4998996;28;20427;-66
2023/09/21 03:23:12;;;;;;;0.80;0.40;;;;;;;15.83;90.72;100023.88;5012596;28;20456;-66
2023/09/21 03:25:50;;;;;;;1.20;0.90;;;;;;;15.73;91.16;100026.53;4993148;28;20829;-65
2023/09/21 03:28:28;;;;;;;0.90;0.50;;;;;;;15.64;91.63;100019.84;4964970;28;20449;-66
2023/09/21 03:31:04;;;;;;;0.80;0.40;;;;;;;15.63;92.18;100016.31;5002989;28;20456;-67
2023/09/21 03:33:38;;;;;;;0.80;0.50;;;;;;;15.70;91.35;100016.09;5014480;28;20453;-66
2023/09/21 03:36:13;;;;;;;0.80;0.40;;;;;;;15.80;90.75;100010.75;4994133;28;20473;-66
2023/09/21 03:38:50;;;;;;;0.80;0.40;;;;;;;15.66;91.27;99998.59;4989401;28;20428;-66
2023/09/21 03:41:32;;;;;;;0.80;0.40;;;;;;;15.69;91.09;100002.72;5002756;28;20800;-66
2023/09/21 03:44:06;;;;;;;0.80;0.40;;;;;;;15.59;91.85;99998.81;4995986;28;20967;-66
2023/09/21 03:46:46;;;;;;;0.80;0.40;;;;;;;15.68;90.97;99999.19;4994950;28;20442;-65
2023/09/21 03:49:22;;;;;;;0.80;0.40;;;;;;;15.72;90.74;100003.03;4992856;28;20423;-66
2023/09/21 03:51:56;;;;;;;0.90;0.67;;;;;;;15.68;90.54;99999.19;5001778;28;20396;-65
2023/09/21 03:54:32;;;;;;;0.80;0.40;;;;;;;15.70;90.64;100002.47;4993806;28;20439;-67
2023/09/21 03:57:08;;;;;;;0.80;0.50;;;;;;;15.63;90.96;99999.13;4982585;28;20528;-67
2023/09/21 03:59:46;;;;;;;0.80;0.50;;;;;;;15.66;90.56;100001.34;5007881;28;20420;-66
2023/09/21 04:02:25;;;;;;;0.80;0.50;;;;;;;15.64;91.04;100000.75;4985268;28;20953;-67
2023/09/21 04:05:12;;;;;;;0.80;0.50;;;;;;;15.78;90.21;99990.28;4997545;28;20564;-68
2023/09/21 04:07:46;;;;;;;1.00;0.70;;;;;;;15.81;89.83;99989.75;4993239;28;20417;-66
2023/09/21 04:10:19;;;;;;;0.80;0.40;;;;;;;15.85;89.51;99986.25;4992960;28;20459;-68
2023/09/21 04:12:55;;;;;;;0.80;0.40;;;;;;;15.83;89.74;99980.22;4990699;28;20825;-68
2023/09/21 04:15:31;;;;;;;1.53;1.37;;;;;;;15.87;89.37;99973.19;5002999;28;20573;-67
2023/09/21 04:18:09;;;;;;;1.23;0.73;;;;;;;15.86;89.11;99987.91;4983026;28;20443;-65
2023/09/21 04:20:44;;;;;;;0.90;0.57;;;;;;;15.90;88.96;99983.56;4993584;28;20798;-66
2023/09/21 04:23:18;;;;;;;2.20;0.50;;;;;;;15.98;88.41;99985.81;4995111;28;20423;-65
2023/09/21 04:25:56;;;;;;;0.80;0.50;;;;;;;16.03;88.03;99977.69;4992892;28;21024;-67
2023/09/21 04:28:31;;;;;;;0.80;0.40;;;;;;;16.16;87.49;99978.34;5002156;28;20444;-68
2023/09/21 04:31:09;;;;;;;0.87;0.60;;;;;;;16.07;86.92;99973.34;4993057;28;20475;-67
2023/09/21 04:33:46;;;;;;;0.80;0.40;;;;;;;16.05;87.31;99975.53;4987387;28;20447;-66
2023/09/21 04:36:20;;;;;;;1.13;0.77;;;;;;;16.01;87.32;99974.41;5010865;28;20416;-67
2023/09/21 04:38:54;;;;;;;0.80;0.50;;;;;;;15.92;87.69;99977.88;5000067;28;20518;-66
2023/09/21 04:41:31;;;;;;;0.80;0.40;;;;;;;15.79;88.16;99976.38;4999503;28;20433;-67
2023/09/21 04:44:06;;;;;;;0.80;0.40;;;;;;;15.87;88.36;99975.91;4990712;28;20433;-67
2023/09/21 04:46:45;;;;;;;0.80;0.50;;;;;;;15.86;87.99;99979.72;4996126;28;20985;-67
2023/09/21 04:49:23;;;;;;;0.90;0.53;;;;;;;15.84;88.44;99976.41;5001394;28;20795;-66
2023/09/21 04:51:57;;;;;;;0.80;0.40;;;;;;;15.93;88.42;99971.31;4987902;28;20497;-66
2023/09/21 04:54:31;;;;;;;0.80;0.50;;;;;;;15.93;88.24;99972.13;4985705;28;20532;-68
2023/09/21 04:57:05;;;;;;;0.90;0.50;;;;;;;15.83;88.57;99977.50;4995841;28;20508;-67
2023/09/21 04:59:43;;;;;;;1.27;1.17;;;;;;;15.82;88.68;99981.31;5011203;28;20453;-68
2023/09/21 05:02:18;;;;;;;0.80;0.40;;;;;;;15.93;89.19;99977.59;4992786;28;20408;-66
2023/09/21 05:04:55;;;;;;;0.80;0.40;;;;;;;15.88;88.97;99974.81;4976339;28;20907;-66
2023/09/21 05:07:38;;;;;;;0.80;0.40;;;;;;;15.84;88.40;99970.97;4994844;28;20467;-67
2023/09/21 05:10:25;;;;;;;0.80;0.50;;;;;;;15.92;88.23;99964.22;4998228;28;20470;-65
2023/09/21 05:13:03;;;;;;;0.80;0.40;;;;;;;15.94;87.77;99962.88;4996414;28;20420;-67
2023/09/21 05:15:37;;;;;;;0.80;0.40;;;;;;;16.04;88.10;99965.69;4997146;28;20567;-67
2023/09/21 05:18:12;;;;;;;0.80;0.40;;;;;;;15.94;87.92;99962.88;4991768;28;20523;-67
2023/09/21 05:20:48;;;;;;;1.00;0.60;;;;;;;15.96;88.39;99966.16;4990770;28;20509;-65
2023/09/21 05:23:23;;;;;;;0.80;0.47;;;;;;;16.02;88.24;99958.84;5009859;28;20424;-72
2023/09/21 05:26:03;;;;;;;0.80;0.50;;;;;;;16.08;87.76;99964.06;4988223;28;20477;-67
2023/09/21 05:28:36;;;;;;;0.80;0.40;;;;;;;16.19;86.76;99961.44;4982795;28;20945;-65
2023/09/21 05:31:10;;;;;;;0.80;0.40;;;;;;;16.30;86.20;99965.88;5006313;28;20473;-66
2023/09/21 05:33:45;;;;;;;0.80;0.40;;;;;;;16.33;85.58;99959.91;4991085;28;20407;-68
2023/09/21 05:36:20;;;;;;;0.93;0.70;;;;;;;16.41;85.46;99962.94;4988989;28;20824;-66
2023/09/21 05:38:52;;;;;;;3.30;0.80;;;;;;;16.51;85.60;99962.19;4986953;28;20415;-67
2023/09/21 05:41:25;;;;;;;0.80;0.50;;;;;;;16.67;84.17;99961.25;4995753;28;20458;-68
2023/09/21 05:43:59;;;;;;;0.90;0.67;;;;;;;16.77;84.00;99953.09;4993187;28;20465;-66
2023/09/21 05:46:33;;;;;;;1.00;0.70;;;;;;;16.81;83.32;99959.69;4996774;28;20514;-67
2023/09/21 05:49:21;;;;;;;0.80;0.60;;;;;;;16.91;83.09;99957.00;5001663;28;20510;-66
2023/09/21 05:51:56;;;;;;;1.30;0.50;;;;;;;16.99;82.50;99957.59;4989592;28;20476;-67
2023/09/21 05:54:29;;;;;;;0.90;0.40;;;;;;;17.18;82.24;99966.97;4994271;28;20452;-67
2023/09/21 05:57:03;;;;;;;0.97;0.77;;;;;;;17.32;80.65;99957.16;5003759;28;20415;-66
2023/09/21 05:59:38;;;;;;;0.80;0.50;;;;;;;17.43;79.89;99958.81;4986701;28;20461;-67
2023/09/21 06:02:17;;;;;;;0.90;0.50;;;;;;;17.46;79.93;99963.75;5008430;28;20511;-66
2023/09/21 06:04:56;;;;;;;1.00;0.60;;;;;;;17.61;78.76;99963.84;4998409;28;20473;-66
2023/09/21 06:07:35;;;;;;;0.90;0.40;;;;;;;17.66;77.95;99958.38;4993375;28;20416;-67
2023/09/21 06:10:11;;;;;;;0.90;0.50;;;;;;;17.72;77.18;99957.25;4991014;28;20515;-65
2023/09/21 06:12:46;;;;;;;1.10;0.50;;;;;;;17.69;77.91;99957.81;5003714;28;20436;-66
2023/09/21 06:15:23;;;;;;;0.90;0.50;;;;;;;17.48;78.08;99956.09;4995300;28;20551;-67
2023/09/21 06:18:00;;;;;;;0.90;0.60;;;;;;;17.45;78.44;99950.34;4993693;28;20507;-67
2023/09/21 06:20:34;;;;;;;1.00;0.77;;;;;;;17.33;78.95;99954.13;4987873;28;20454;-67
2023/09/21 06:23:09;;;;;;;1.10;0.77;;;;;;;17.39;78.70;99952.25;4992561;28;20404;-67
2023/09/21 06:25:43;;;;;;;0.90;0.40;;;;;;;17.39;79.30;99946.78;4993795;28;20464;-66
2023/09/21 06:28:18;;;;;;;0.90;0.40;;;;;;;17.41;78.93;99952.00;4996316;28;20793;-67
2023/09/21 06:30:53;;;;;;;0.90;0.50;;;;;;;17.56;78.27;99952.84;4980859;28;20957;-66
2023/09/21 06:33:28;;;;;;;0.90;0.50;;;;;;;17.72;78.11;99949.06;4996880;28;20418;-66
2023/09/21 06:36:04;;;;;;;0.90;0.40;;;;;;;17.90;77.44;99946.91;4994971;28;20457;-66
2023/09/21 06:38:39;;;;;;;0.90;0.40;;;;;;;18.14;75.57;99948.00;4992923;28;20856;-67
2023/09/21 06:41:14;;;;;;;0.90;0.50;;;;;;;18.30;75.29;99946.88;4990480;28;20442;-67
2023/09/21 06:44:43;;;;;;;0.90;0.43;;;;;;;18.50;73.99;99946.84;4990924;28;20466;-66
2023/09/21 06:47:17;;;;;;;1.20;0.50;;;;;;;18.69;73.34;99938.09;4992700;28;20468;-67
2023/09/21 06:49:54;;;;;;;0.90;0.50;;;;;;;18.90;72.66;99939.63;4997844;28;20456;-67
2023/09/21 06:52:28;;;;;;;0.90;0.50;;;;;;;19.14;71.66;99945.28;4992491;28;20436;-65
2023/09/21 06:55:06;;;;;;;1.00;0.50;;;;;;;19.25;69.79;99939.50;4996417;28;20469;-67
2023/09/21 06:57:39;;;;;;;0.90;0.40;;;;;;;19.29;69.70;99939.72;5010424;28;20441;-66
2023/09/21 07:00:13;;;;;;;0.90;0.50;;;;;;;19.46;68.96;99946.50;4992014;28;20458;-66
2023/09/21 07:02:49;;;;;;;1.60;0.50;;;;;;;19.65;68.28;99941.22;5010282;28;20459;-67
2023/09/21 07:05:24;;;;;;;0.90;0.40;;;;;;;19.77;67.47;99943.56;4989293;28;20513;-65
2023/09/21 07:07:56;;;;;;;0.90;0.50;;;;;;;19.85;67.25;99940.22;5006820;28;20428;-66
2023/09/21 07:10:31;;;;;;;0.90;0.60;;;;;;;20.08;66.81;99934.00;4998252;28;20503;-65
2023/09/21 07:13:05;;;;;;;1.17;0.67;;;;;;;20.22;65.95;99929.47;4998017;28;20529;-67
2023/09/21 07:15:41;;;;;;;1.67;1.13;;;;;;;20.41;64.97;99931.53;4985922;28;20494;-66
2023/09/21 07:18:16;;;;;;;0.90;0.50;;;;;;;20.61;64.06;99926.66;4985028;28;20790;-66
2023/09/21 07:20:50;;;;;;;1.00;0.50;;;;;;;20.81;63.43;99928.34;4991502;28;20414;-66
2023/09/21 07:23:24;;;;;;;1.00;0.60;;;;;;;20.95;62.75;99929.28;4993230;28;20446;-66
2023/09/21 07:26:06;;;;;;;2.10;0.70;;;;;;;21.18;61.58;99930.38;4990799;28;20469;-66
2023/09/21 07:28:39;;;;;;;0.90;0.40;;;;;;;21.34;61.39;99928.25;4986407;28;20447;-65
2023/09/21 07:31:12;;;;;;;0.90;0.40;;;;;;;21.38;61.18;99926.53;5000532;28;20509;-66
2023/09/21 07:33:57;;;;;;;1.20;0.50;;;;;;;21.44;60.84;99919.84;5000514;28;20435;-67
2023/09/21 07:36:31;;;;;;;0.90;0.50;;;;;;;21.50;60.65;99933.22;4988400;28;20555;-66
2023/09/21 07:39:08;;;;;;;3.30;1.33;;;;;;;21.60;60.53;99921.25;5008821;28;20442;-67
2023/09/21 07:41:48;;;;;;;0.90;0.60;;;;;;;21.69;60.26;99925.78;4983912;28;20448;-66
2023/09/21 07:44:25;;;;;;;0.90;0.40;;;;;;;21.73;59.66;99931.53;4985135;28;20873;-67
2023/09/21 07:47:02;;;;;;;1.80;0.63;;;;;;;21.85;59.44;99931.06;4991154;28;20428;-66
2023/09/21 07:49:36;;;;;;;1.10;0.67;;;;;;;22.01;59.28;99932.47;5006948;28;20455;-65
2023/09/21 07:52:17;;;;;;;1.00;0.70;;;;;;;22.27;58.45;99921.84;4994871;28;20473;-67
2023/09/21 07:55:29;;;;;;;0.90;0.40;;;;;;;22.42;58.13;99929.81;4992232;28;20485;-65
2023/09/21 07:58:07;;;;;;;0.90;0.50;;;;;;;22.40;58.08;99919.13;4993083;28;20481;-66
2023/09/21 08:00:44;;;;;;;0.90;0.47;;;;;;;22.44;57.90;99919.31;4985774;28;20413;-66
2023/09/21 08:03:21;;;;;;;0.90;0.50;;;;;;;22.45;58.21;99916.28;4997066;28;20519;-65
2023/09/21 08:05:54;;;;;;;1.27;0.60;;;;;;;22.53;57.77;99911.97;4990260;28;20461;-67
2023/09/21 08:08:31;;;;;;;0.90;0.50;;;;;;;22.66;57.71;99911.16;5001642;28;20421;-67
2023/09/21 08:11:08;;;;;;;0.90;0.47;;;;;;;22.79;57.35;99895.78;4999931;28;20537;-66
2023/09/21 08:13:45;;;;;;;1.53;1.43;;;;;;;22.93;56.75;99908.44;4993157;28;20472;-66
2023/09/21 08:16:18;;;;;;;1.10;0.60;;;;;;;23.09;56.38;99902.63;4990167;28;20441;-65
2023/09/21 08:18:52;;;;;;;1.10;0.50;;;;;;;23.10;56.34;99898.72;4991996;28;21092;-66
2023/09/21 08:21:25;;;;;;;1.00;0.50;;;;;;;23.24;56.38;99899.50;4985524;28;20441;-68
2023/09/21 08:24:09;;;;;;;1.20;0.50;;;;;;;23.31;55.55;99905.44;4996658;28;20442;-67
2023/09/21 08:26:42;;;;;;;1.00;0.50;;;;;;;23.29;55.81;99907.66;5005045;28;20486;-67
2023/09/21 08:29:21;;;;;;;1.10;0.77;;;;;;;23.39;55.63;99896.41;4993486;28;20837;-66
2023/09/21 08:31:55;;;;;;;0.90;0.50;;;;;;;23.45;55.16;99906.25;4994192;28;20816;-67
2023/09/21 08:34:28;;;;;;;1.10;0.50;;;;;;;23.48;55.41;99900.09;4987145;28;20469;-66
2023/09/21 08:37:04;;;;;;;1.00;0.60;;;;;;;23.48;54.76;99902.84;4999082;28;20455;-66
2023/09/21 08:39:37;;;;;;;1.00;0.60;;;;;;;23.34;55.66;99907.56;4999971;28;20466;-66
2023/09/21 08:42:14;;;;;;;1.03;0.70;;;;;;;23.44;55.95;99899.03;4996335;28;20451;-66
2023/09/21 08:44:50;;;;;;;1.33;0.70;;;;;;;23.54;55.59;99901.59;4992862;28;20472;-65
2023/09/21 08:47:24;;;;;;;1.07;0.63;;;;;;;23.72;55.02;99897.06;5011066;28;20481;-65
2023/09/21 08:50:09;;;;;;;0.90;0.47;;;;;;;23.83;54.90;99901.19;4987583;28;20507;-65
2023/09/21 08:52:42;;;;;;;1.00;0.70;;;;;;;23.86;54.17;99899.75;4987693;28;20466;-67
2023/09/21 08:55:16;;;;;;;1.37;1.27;;;;;;;24.06;54.17;99905.56;4998638;28;20615;-65
2023/09/21 08:57:48;;;;;;;1.00;0.53;;;;;;;24.13;54.37;99905.13;4991361;28;20511;-66
2023/09/21 09:00:28;;;;;;;1.20;0.50;;;;;;;24.21;54.00;99902.44;4990282;28;20440;-65
2023/09/21 09:03:05;;;;;;;0.90;0.40;;;;;;;24.31;53.13;99898.59;4986686;28;20801;-68
2023/09/21 09:05:39;;;;;;;0.90;0.47;;;;;;;24.56;53.11;99895.16;5005663;28;20473;-67
2023/09/21 09:08:12;;;;;;;1.00;0.50;;;;;;;24.59;53.03;99904.78;4996106;28;20553;-67
2023/09/21 09:10:45;;;;;;;1.10;0.70;;;;;;;24.77;52.68;99892.63;4995758;28;20548;-67
2023/09/21 09:13:18;;;;;;;1.00;0.60;;;;;;;24.89;52.04;99897.56;5007242;28;20476;-66
2023/09/21 09:15:53;;;;;;;3.23;0.67;;;;;;;24.67;52.46;99898.44;5005731;28;20539;-67
2023/09/21 09:18:34;;;;;;;1.10;0.50;;;;;;;24.92;52.18;99894.19;4993293;28;20438;-66
2023/09/21 09:21:07;;;;;;;1.33;0.90;;;;;;;25.05;51.59;99899.56;4989706;28;20464;-66
2023/09/21 09:23:41;;;;;;;1.50;0.60;;;;;;;25.09;51.05;99905.28;4996108;28;20453;-65
2023/09/21 09:26:16;;;;;;;0.90;0.40;;;;;;;25.14;50.90;99894.06;4992562;28;20481;-67
2023/09/21 09:28:50;;;;;;;0.93;0.47;;;;;;;25.20;50.87;99891.94;4991536;28;20450;-65
2023/09/21 09:31:32;;;;;;;1.63;0.60;;;;;;;25.18;50.90;99892.25;4988316;28;20446;-67
2023/09/21 09:34:08;;;;;;;0.90;0.40;;;;;;;25.34;50.97;99884.31;4990175;28;20654;-66
2023/09/21 09:36:41;;;;;;;1.00;0.40;;;;;;;25.49;49.91;99883.84;4994525;28;20449;-64
2023/09/21 09:39:14;;;;;;;1.10;0.50;;;;;;;25.51;50.03;99879.59;4995679;28;20878;-65
2023/09/21 09:41:49;;;;;;;0.97;0.43;;;;;;;25.51;50.23;99876.81;4993719;28;20429;-66
2023/09/21 09:44:27;;;;;;;0.90;0.47;;;;;;;25.67;49.92;99881.91;5004925;28;20499;-67
2023/09/21 09:47:04;;;;;;;1.10;0.60;;;;;;;25.74;49.34;99879.47;4994070;28;20450;-67
2023/09/21 09:50:17;;;;;;;1.00;0.50;;;;;;;25.74;48.95;99871.97;4984107;28;20457;-66
2023/09/21 09:53:23;;;;;;;1.17;0.60;;;;;;;25.60;49.41;99864.97;4983980;28;20532;-68
2023/09/21 09:55:56;;;;;;;1.00;0.50;;;;;;;25.68;49.61;99855.81;4985527;28;20480;-68
2023/09/21 09:58:28;;;;;;;1.20;0.60;;;;;;;25.75;49.67;99853.41;5004944;28;20704;-69
2023/09/21 10:01:02;;;;;;;1.03;0.67;;;;;;;25.75;49.67;99859.75;4980638;28;20449;-71
2023/09/21 10:03:35;;;;;;;1.00;0.60;;;;;;;25.84;49.56;99855.00;4988006;28;20450;-69
2023/09/21 10:06:10;;;;;;;0.90;0.50;;;;;;;25.95;49.10;99855.44;4990143;28;20457;-69
2023/09/21 10:08:42;;;;;;;0.93;0.50;;;;;;;26.13;49.03;99848.75;4982658;28;20500;-69
2023/09/21 10:11:15;;;;;;;1.00;0.50;;;;;;;26.11;48.53;99844.66;5006032;28;20989;-70
2023/09/21 10:13:53;;;;;;;1.00;0.50;;;;;;;26.06;48.91;99842.88;4988002;28;20899;-69
2023/09/21 10:16:24;;;;;;;1.00;0.67;;;;;;;26.20;47.92;99839.91;4987065;28;20450;-70
2023/09/21 10:19:00;;;;;;;1.20;0.60;;;;;;;26.23;47.00;99845.66;4984441;28;20461;-70
2023/09/21 10:21:38;;;;;;;0.90;0.50;;;;;;;26.45;46.66;99836.25;4996944;28;20581;-68
2023/09/21 10:24:18;;;;;;;0.93;0.50;;;;;;;26.51;46.92;99826.59;4995640;28;20469;-69
2023/09/21 10:26:50;;;;;;;1.17;0.50;;;;;;;26.56;46.68;99825.59;4989127;28;20443;-69
2023/09/21 10:29:28;;;;;;;1.00;0.60;;;;;;;26.79;46.83;99821.38;4991470;28;20456;-69
2023/09/21 10:32:01;;;;;;;1.10;0.70;;;;;;;26.85;46.60;99822.81;5005865;28;20476;-71
2023/09/21 10:34:33;;;;;;;0.97;0.50;;;;;;;26.95;46.38;99822.47;5007968;28;20476;-70
2023/09/21 10:37:06;;;;;;;1.00;0.53;;;;;;;26.82;45.60;99821.50;4995966;28;20428;-72
2023/09/21 10:39:37;;;;;;;1.20;0.97;;;;;;;26.83;45.61;99805.69;4989645;28;20453;-69
2023/09/21 10:42:33;;;;;;;1.10;0.67;;;;;;;26.78;45.14;99803.91;5000236;28;20468;-73
2023/09/21 10:45:07;;;;;;;0.90;0.40;;;;;;;26.93;44.54;99802.53;5008484;28;20499;-69
2023/09/21 10:47:52;;;;;;;0.90;0.40;;;;;;;26.92;44.28;99803.69;4988411;28;20466;-69
2023/09/21 10:50:25;;;;;;;1.00;0.40;;;;;;;26.93;44.50;99805.31;4990309;28;20469;-70
2023/09/21 10:52:57;;;;;;;0.90;0.40;;;;;;;27.09;43.57;99800.81;4994698;28;20446;-68
2023/09/21 10:55:28;;;;;;;1.00;0.50;;;;;;;27.11;43.01;99812.38;5008641;28;20477;-71
2023/09/21 10:58:00;;;;;;;0.90;0.40;;;;;;;27.16;43.52;99801.06;4996086;28;20450;-69
2023/09/21 11:00:31;;;;;;;1.00;0.50;;;;;;;27.15;43.64;99793.91;5007418;28;20617;-69
2023/09/21 11:03:02;;;;;;;0.90;0.50;;;;;;;27.38;43.43;99793.53;4993039;28;20485;-70
2023/09/21 11:05:34;;;;;;;1.00;0.60;;;;;;;27.53;43.42;99790.97;4999722;28;20531;-69
2023/09/21 11:08:06;;;;;;;0.97;0.50;;;;;;;27.59;43.50;99788.81;4994082;28;20454;-70
2023/09/21 11:10:42;;;;;;;1.50;0.53;;;;;;;27.42;43.75;99792.53;4992558;28;20418;-68
2023/09/21 11:13:13;;;;;;;1.40;1.07;;;;;;;27.33;44.27;99789.00;5011370;28;20544;-70
2023/09/21 11:15:44;;;;;;;0.90;0.40;;;;;;;27.27;44.20;99786.75;4995726;28;20549;-70
2023/09/21 11:18:15;;;;;;;0.90;0.40;;;;;;;27.25;44.87;99787.91;4998611;28;21042;-67
2023/09/21 11:20:47;;;;;;;0.90;0.40;;;;;;;27.41;43.45;99790.06;5003937;28;20450;-70
2023/09/21 11:23:20;;;;;;;1.00;0.60;;;;;;;27.55;43.40;99787.84;4994882;28;20441;-71
2023/09/21 11:25:54;;;;;;;1.13;0.70;;;;;;;27.75;43.15;99784.22;4994900;28;20453;-70
2023/09/21 11:28:25;;;;;;;1.13;0.57;;;;;;;28.00;42.72;99774.78;5006099;28;20457;-70
2023/09/21 11:30:57;;;;;;;1.30;0.60;;;;;;;28.06;42.88;99770.63;4993205;28;20419;-69
2023/09/21 11:33:28;;;;;;;1.10;0.50;;;;;;;28.19;43.09;99777.03;5013401;28;20445;-71
2023/09/21 11:35:59;;;;;;;1.87;0.63;;;;;;;28.14;42.06;99765.31;4987699;28;20457;-70
2023/09/21 11:38:33;;;;;;;1.00;0.50;;;;;;;27.88;42.42;99760.88;4989949;28;20689;-69
2023/09/21 11:41:04;;;;;;;0.97;0.50;;;;;;;28.00;42.31;99763.66;4991360;28;20526;-69
2023/09/21 11:43:35;;;;;;;0.97;0.40;;;;;;;28.04;41.78;99761.81;4992084;28;20430;-68
2023/09/21 11:46:06;;;;;;;1.10;0.50;;;;;;;28.38;41.30;99745.84;4992313;28;20472;-68
2023/09/21 11:48:36;;;;;;;0.90;0.40;;;;;;;28.32;40.64;99748.03;4983375;28;20446;-67
2023/09/21 11:51:10;;;;;;;2.03;0.93;;;;;;;28.25;40.68;99747.84;4983859;28;20453;-69
2023/09/21 11:53:40;;;;;;;0.90;0.47;;;;;;;28.05;41.19;99743.16;4992885;28;21063;-68
2023/09/21 11:56:12;;;;;;;1.00;0.60;;;;;;;27.88;41.52;99727.50;4998782;28;20553;-70
2023/09/21 11:58:42;;;;;;;0.93;0.40;;;;;;;27.69;41.79;99724.47;5005663;28;20442;-69
2023/09/21 12:01:19;;;;;;;1.13;0.60;;;;;;;27.77;42.18;99731.88;4991176;28;20473;-68
2023/09/21 12:04:22;;;;;;;0.93;0.50;;;;;;;27.66;41.13;99727.91;4989048;28;20495;-72
2023/09/21 12:06:54;;;;;;;1.00;0.50;;;;;;;27.93;41.02;99724.47;4995943;28;20978;-70
2023/09/21 12:09:26;;;;;;;1.00;0.50;;;;;;;28.19;40.54;99726.16;4994849;28;20435;-68
2023/09/21 12:11:56;;;;;;;1.00;0.50;;;;;;;28.34;40.78;99717.91;4994760;28;20485;-71